Time;durP1;ratioP1;P1;durP2;ratioP2;P2;SDS_P1;SDS_P2;PMS_P1;PMS_P2;Temp;Humidity;BMP_temperature;BMP_pressure;BME280_temperature;BME280_humidity;BME280_pressure;Samples;Min_cycle;Max_cycle;Signal;HPM_P1;HPM_P2
2021/09/03 00:02:19;;;;;;;6.85;4.90;;;14.50;99.90;;;;;;5055700;28;20506;-86
2021/09/03 00:04:45;;;;;;;9.25;4.30;;;14.40;99.90;;;;;;5057036;28;20032;-86
2021/09/03 00:07:11;;;;;;;13.35;5.15;;;14.50;99.90;;;;;;5055728;28;20489;-87
2021/09/03 00:09:37;;;;;;;7.72;4.32;;;14.50;99.90;;;;;;5056925;28;20136;-86
2021/09/03 00:12:05;;;;;;;10.05;4.63;;;14.50;99.90;;;;;;5055650;28;20029;-86
2021/09/03 00:14:31;;;;;;;5.25;4.28;;;14.60;99.90;;;;;;5056465;28;20033;-87
2021/09/03 00:16:56;;;;;;;7.97;5.20;;;14.60;99.90;;;;;;5055534;28;20029;-86
2021/09/03 00:19:22;;;;;;;6.88;4.30;;;14.50;99.90;;;;;;5055438;28;20117;-85
2021/09/03 00:21:48;;;;;;;7.43;4.30;;;14.50;99.90;;;;;;5055353;28;20473;-85
2021/09/03 00:24:14;;;;;;;7.95;4.60;;;14.30;99.90;;;;;;5055817;28;20087;-85
2021/09/03 00:26:40;;;;;;;8.45;4.93;;;14.30;99.90;;;;;;5057293;28;20044;-86
2021/09/03 00:29:05;;;;;;;6.43;4.32;;;14.60;99.90;;;;;;5058498;28;20053;-88
2021/09/03 00:31:31;;;;;;;9.70;4.60;;;14.20;99.90;;;;;;5057428;28;20059;-86
2021/09/03 00:33:57;;;;;;;6.45;4.65;;;14.00;99.90;;;;;;5055354;28;20108;-86
2021/09/03 00:36:22;;;;;;;12.10;4.65;;;14.00;99.90;;;;;;5056633;28;20382;-86
2021/09/03 00:38:48;;;;;;;5.38;4.50;;;14.00;99.90;;;;;;5055138;28;20017;-85
2021/09/03 00:41:14;;;;;;;10.45;4.32;;;14.10;99.90;;;;;;5055080;28;20025;-85
2021/09/03 00:43:40;;;;;;;7.43;4.70;;;14.40;99.90;;;;;;5054916;28;20074;-85
2021/09/03 00:46:06;;;;;;;8.90;4.38;;;14.50;99.90;;;;;;5055009;28;20067;-85
2021/09/03 00:48:32;;;;;;;12.00;4.85;;;14.30;99.90;;;;;;5054921;28;20017;-87
2021/09/03 00:50:58;;;;;;;8.15;4.57;;;14.40;99.90;;;;;;5054853;28;20359;-87
2021/09/03 00:53:24;;;;;;;5.05;4.13;;;14.10;99.90;;;;;;5054773;28;20029;-85
2021/09/03 00:55:52;;;;;;;7.22;4.13;;;14.20;99.90;;;;;;5056050;28;20075;-85
2021/09/03 00:58:21;;;;;;;7.47;4.55;;;14.20;99.90;;;;;;5054045;28;20485;-88
2021/09/03 01:00:50;;;;;;;6.57;4.90;;;14.30;99.90;;;;;;5054696;28;20025;-87
2021/09/03 01:03:17;;;;;;;8.48;4.65;;;14.20;99.90;;;;;;5055862;28;20037;-85
2021/09/03 01:05:42;;;;;;;5.72;4.50;;;14.00;99.90;;;;;;5054674;28;20361;-85
2021/09/03 01:08:09;;;;;;;8.52;4.45;;;14.30;99.90;;;;;;5055874;28;20017;-86
2021/09/03 01:10:35;;;;;;;9.90;5.18;;;14.10;99.90;;;;;;5054536;28;20017;-88
2021/09/03 01:13:01;;;;;;;5.57;4.15;;;13.80;99.90;;;;;;5054484;28;20036;-86
2021/09/03 01:15:29;;;;;;;8.60;4.28;;;13.80;99.90;;;;;;5054500;28;20021;-86
2021/09/03 01:17:55;;;;;;;5.72;4.20;;;13.80;99.90;;;;;;5055731;28;20396;-85
2021/09/03 01:20:21;;;;;;;6.93;4.10;;;14.00;99.90;;;;;;5054328;28;20025;-87
2021/09/03 01:22:46;;;;;;;5.97;4.35;;;14.00;99.90;;;;;;5055182;28;20461;-86
2021/09/03 01:25:14;;;;;;;6.15;4.68;;;13.90;99.90;;;;;;5054059;28;20048;-85
2021/09/03 01:27:41;;;;;;;7.78;4.30;;;14.00;99.90;;;;;;5054185;28;20044;-85
2021/09/03 01:30:12;;;;;;;7.10;4.55;;;13.90;99.90;;;;;;5054523;28;20048;-85
2021/09/03 01:32:38;;;;;;;10.38;4.32;;;14.00;99.90;;;;;;5055455;28;20039;-86
2021/09/03 01:35:04;;;;;;;7.18;4.45;;;13.80;99.90;;;;;;5054052;28;20029;-88
2021/09/03 01:37:30;;;;;;;7.72;4.10;;;14.00;99.90;;;;;;5054468;28;20540;-85
2021/09/03 01:39:56;;;;;;;4.75;4.25;;;14.10;99.90;;;;;;5053997;28;20120;-85
2021/09/03 01:42:21;;;;;;;6.60;4.20;;;14.00;99.90;;;;;;5053823;28;20029;-86
2021/09/03 01:44:47;;;;;;;8.38;4.40;;;14.10;99.90;;;;;;5055138;28;20029;-85
2021/09/03 01:47:13;;;;;;;5.63;4.20;;;14.10;99.90;;;;;;5053849;28;20120;-86
2021/09/03 01:49:38;;;;;;;8.15;4.45;;;14.20;99.90;;;;;;5055053;28;20377;-85
2021/09/03 01:52:05;;;;;;;6.88;4.20;;;14.10;99.90;;;;;;5053757;28;20051;-85
2021/09/03 01:54:30;;;;;;;7.85;4.32;;;14.10;99.90;;;;;;5053690;28;20033;-85
2021/09/03 01:56:56;;;;;;;6.93;4.80;;;14.30;99.90;;;;;;5053663;28;20025;-85
2021/09/03 01:59:22;;;;;;;6.18;4.05;;;14.20;99.90;;;;;;5053640;28;20175;-86
2021/09/03 02:01:48;;;;;;;6.85;4.70;;;14.00;99.90;;;;;;5053471;28;20489;-85
2021/09/03 02:04:13;;;;;;;10.60;4.38;;;13.90;99.90;;;;;;5055145;28;20025;-85
2021/09/03 02:06:39;;;;;;;6.50;4.47;;;13.90;99.90;;;;;;5053534;28;20017;-86
2021/09/03 02:09:05;;;;;;;5.13;4.20;;;13.70;99.90;;;;;;5053509;28;20024;-86
2021/09/03 02:11:31;;;;;;;6.82;4.25;;;13.80;99.90;;;;;;5052941;28;20017;-85
2021/09/03 02:13:56;;;;;;;10.07;4.53;;;14.10;99.90;;;;;;5053327;28;20021;-86
2021/09/03 02:16:22;;;;;;;8.32;4.80;;;14.00;99.90;;;;;;5053549;28;20059;-85
2021/09/03 02:18:49;;;;;;;7.88;4.10;;;13.80;99.90;;;;;;5053229;28;20021;-85
2021/09/03 02:21:15;;;;;;;5.40;3.63;;;13.90;99.90;;;;;;5053459;28;20057;-86
2021/09/03 02:23:41;;;;;;;6.82;4.22;;;13.90;99.90;;;;;;5053452;28;20056;-85
2021/09/03 02:26:07;;;;;;;5.60;3.78;;;13.80;99.90;;;;;;5052883;28;20531;-86
2021/09/03 02:28:34;;;;;;;7.60;4.00;;;13.50;99.90;;;;;;5054203;28;20048;-85
2021/09/03 02:31:00;;;;;;;7.47;4.50;;;13.40;99.90;;;;;;5052989;28;20028;-86
2021/09/03 02:33:26;;;;;;;6.47;3.95;;;13.50;99.90;;;;;;5054271;28;20496;-86
2021/09/03 02:35:52;;;;;;;6.95;4.18;;;13.60;99.90;;;;;;5052907;28;20541;-85
2021/09/03 02:38:18;;;;;;;5.30;4.05;;;13.80;99.90;;;;;;5052830;28;20021;-86
2021/09/03 02:40:43;;;;;;;13.18;4.30;;;14.00;99.90;;;;;;5054437;28;20025;-86
2021/09/03 02:43:09;;;;;;;7.35;4.15;;;14.00;99.90;;;;;;5057317;28;20032;-85
2021/09/03 02:45:35;;;;;;;7.00;4.03;;;13.80;99.90;;;;;;5059138;28;20028;-86
2021/09/03 02:48:01;;;;;;;9.27;4.40;;;14.00;99.90;;;;;;5055735;28;20021;-87
2021/09/03 02:50:29;;;;;;;5.38;4.22;;;14.00;99.90;;;;;;5053079;28;20554;-86
2021/09/03 02:52:56;;;;;;;6.03;4.25;;;13.60;99.90;;;;;;5052775;28;20021;-88
2021/09/03 02:55:23;;;;;;;6.00;4.10;;;13.40;99.90;;;;;;5052602;28;20163;-86
2021/09/03 02:57:48;;;;;;;6.63;4.15;;;13.20;99.90;;;;;;5052680;28;20056;-86
2021/09/03 03:00:15;;;;;;;7.90;4.15;;;13.30;99.90;;;;;;5052624;28;20480;-86
2021/09/03 03:02:40;;;;;;;4.97;3.58;;;13.50;99.90;;;;;;5052440;28;20029;-86
2021/09/03 03:05:07;;;;;;;7.00;4.50;;;13.20;99.90;;;;;;5052624;28;20522;-86
2021/09/03 03:07:33;;;;;;;7.72;4.28;;;13.10;99.90;;;;;;5035885;28;20435;-85
2021/09/03 03:09:58;;;;;;;6.35;4.65;;;13.10;99.90;;;;;;5052365;28;20021;-86
2021/09/03 03:12:25;;;;;;;7.22;4.25;;;13.20;99.90;;;;;;5052407;28;20082;-86
2021/09/03 03:14:50;;;;;;;8.32;4.15;;;13.30;99.90;;;;;;5053614;28;20040;-88
2021/09/03 03:17:17;;;;;;;9.57;4.22;;;13.20;99.90;;;;;;5052581;28;20028;-88
2021/09/03 03:19:43;;;;;;;6.85;4.25;;;13.40;99.90;;;;;;5052260;28;20533;-87
2021/09/03 03:22:09;;;;;;;12.40;4.78;;;13.40;99.90;;;;;;5052076;28;20056;-87
2021/09/03 03:24:35;;;;;;;9.07;4.15;;;13.50;99.90;;;;;;5053402;28;20057;-87
2021/09/03 03:27:01;;;;;;;5.68;3.85;;;13.50;99.90;;;;;;5052001;28;20400;-87
2021/09/03 03:29:27;;;;;;;5.72;4.00;;;13.30;99.90;;;;;;5052130;28;20025;-87
2021/09/03 03:31:53;;;;;;;7.97;4.18;;;13.30;99.90;;;;;;5052017;28;20025;-88
2021/09/03 03:34:19;;;;;;;6.95;4.00;;;13.40;99.90;;;;;;5052031;28;20021;-87
2021/09/03 03:36:45;;;;;;;6.35;4.18;;;13.50;99.90;;;;;;5051886;28;20054;-87
2021/09/03 03:39:11;;;;;;;5.78;4.15;;;13.60;99.90;;;;;;5052008;28;20055;-87
2021/09/03 03:41:37;;;;;;;5.03;3.78;;;13.70;99.90;;;;;;5051929;28;20388;-87
2021/09/03 03:44:04;;;;;;;5.93;3.95;;;13.60;99.90;;;;;;5051868;28;20033;-88
2021/09/03 03:46:30;;;;;;;5.68;3.95;;;13.60;99.90;;;;;;5051892;28;20025;-87
2021/09/03 03:48:56;;;;;;;6.75;4.28;;;13.50;99.90;;;;;;5051886;28;20091;-87
2021/09/03 03:51:22;;;;;;;6.75;4.20;;;13.50;99.90;;;;;;5051852;28;20385;-87
2021/09/03 03:53:48;;;;;;;7.25;4.50;;;13.60;99.90;;;;;;5052652;28;20021;-87
2021/09/03 03:56:14;;;;;;;7.07;4.10;;;13.60;99.90;;;;;;5051850;28;20033;-87
2021/09/03 03:58:40;;;;;;;5.15;3.85;;;13.60;99.90;;;;;;5051765;28;20075;-87
2021/09/03 04:01:05;;;;;;;7.05;4.40;;;13.80;99.90;;;;;;5051778;28;20082;-87
2021/09/03 04:03:31;;;;;;;6.75;4.32;;;13.80;99.90;;;;;;5051521;28;20025;-88
2021/09/03 04:05:57;;;;;;;8.05;4.05;;;13.70;99.90;;;;;;5051669;28;20021;-87
2021/09/03 04:08:22;;;;;;;7.68;4.38;;;13.50;99.90;;;;;;5051695;28;20025;-87
2021/09/03 04:10:48;;;;;;;8.82;3.90;;;13.50;99.90;;;;;;5051642;28;20032;-87
2021/09/03 04:13:14;;;;;;;6.03;4.38;;;13.40;99.90;;;;;;5051648;28;20033;-87
2021/09/03 04:15:40;;;;;;;8.45;4.45;;;13.10;99.90;;;;;;5051577;28;20086;-87
2021/09/03 04:18:05;;;;;;;5.18;3.63;;;13.30;99.90;;;;;;5051548;28;20054;-87
2021/09/03 04:20:31;;;;;;;7.40;4.75;;;13.30;99.90;;;;;;5051589;28;20036;-87
2021/09/03 04:22:57;;;;;;;9.63;4.78;;;13.40;99.90;;;;;;5051466;28;20021;-87
2021/09/03 04:25:23;;;;;;;6.32;3.78;;;13.10;99.90;;;;;;5051784;28;20068;-87
2021/09/03 04:27:48;;;;;;;7.10;4.35;;;13.10;99.90;;;;;;5051513;28;20537;-89
2021/09/03 04:30:15;;;;;;;8.20;4.88;;;13.10;99.90;;;;;;5051391;28;20020;-87
2021/09/03 04:32:41;;;;;;;6.38;4.35;;;13.10;99.90;;;;;;5051433;28;20037;-87
2021/09/03 04:35:08;;;;;;;6.00;3.83;;;13.00;99.90;;;;;;5054433;28;20120;-87
2021/09/03 04:37:44;;;;;;;6.75;4.53;;;13.00;99.90;;;;;;5055092;28;20051;-87
2021/09/03 04:40:11;;;;;;;6.72;4.20;;;13.20;99.90;;;;;;5055216;28;20075;-87
2021/09/03 04:42:37;;;;;;;6.35;4.00;;;13.50;99.90;;;;;;5056186;28;20029;-87
2021/09/03 04:45:03;;;;;;;6.13;4.53;;;13.60;99.90;;;;;;5055017;28;20121;-87
2021/09/03 04:47:29;;;;;;;6.65;3.83;;;13.50;99.90;;;;;;5055022;28;20108;-87
2021/09/03 04:49:55;;;;;;;5.30;4.10;;;13.40;99.90;;;;;;5054969;28;20112;-87
2021/09/03 04:52:21;;;;;;;8.77;4.53;;;13.20;99.90;;;;;;5054846;28;20112;-86
2021/09/03 04:54:46;;;;;;;6.13;4.22;;;13.10;99.90;;;;;;5056234;28;20025;-86
2021/09/03 04:57:12;;;;;;;7.05;4.10;;;12.90;99.90;;;;;;5054933;28;20033;-87
2021/09/03 04:59:38;;;;;;;5.85;4.00;;;12.90;99.90;;;;;;5057941;28;20040;-86
2021/09/03 05:02:03;;;;;;;8.60;3.97;;;13.00;99.90;;;;;;5058464;28;20112;-86
2021/09/03 05:04:29;;;;;;;4.97;4.05;;;13.10;99.90;;;;;;5056762;28;20025;-87
2021/09/03 05:06:55;;;;;;;4.97;3.75;;;13.10;99.90;;;;;;5056075;28;20017;-87
2021/09/03 05:09:20;;;;;;;5.82;4.20;;;13.30;99.90;;;;;;5056398;28;20481;-87
2021/09/03 05:11:46;;;;;;;6.53;4.60;;;13.10;99.90;;;;;;5054972;28;20025;-87
2021/09/03 05:14:12;;;;;;;8.65;4.25;;;13.10;99.90;;;;;;5054773;28;20111;-87
2021/09/03 05:16:37;;;;;;;6.03;4.07;;;12.90;99.90;;;;;;5054439;28;20086;-88
2021/09/03 05:19:03;;;;;;;5.07;4.00;;;13.00;99.90;;;;;;5054520;28;20376;-87
2021/09/03 05:21:29;;;;;;;7.05;4.53;;;12.70;99.90;;;;;;5054289;28;20025;-87
2021/09/03 05:23:55;;;;;;;6.00;3.80;;;12.50;99.90;;;;;;5054301;28;20049;-87
2021/09/03 05:26:20;;;;;;;5.68;3.92;;;12.80;99.90;;;;;;5054120;28;20049;-88
2021/09/03 05:28:46;;;;;;;6.90;3.70;;;13.10;99.90;;;;;;5054277;28;20054;-87
2021/09/03 05:31:12;;;;;;;5.00;3.78;;;13.10;99.90;;;;;;5054208;28;20128;-87
2021/09/03 05:33:37;;;;;;;5.50;4.22;;;13.20;99.90;;;;;;5054158;28;20029;-87
2021/09/03 05:36:03;;;;;;;6.93;3.95;;;13.20;99.90;;;;;;5055296;28;20509;-87
2021/09/03 05:38:29;;;;;;;7.80;3.85;;;13.30;99.90;;;;;;5053886;28;20017;-87
2021/09/03 05:40:54;;;;;;;5.07;3.90;;;13.00;99.90;;;;;;5054147;28;20508;-87
2021/09/03 05:43:21;;;;;;;5.38;3.75;;;12.90;99.90;;;;;;5055489;28;20031;-88
2021/09/03 05:45:49;;;;;;;5.75;3.85;;;13.10;99.90;;;;;;5053620;28;20021;-87
2021/09/03 05:48:15;;;;;;;5.30;3.85;;;13.20;99.90;;;;;;5053900;28;20017;-88
2021/09/03 05:50:40;;;;;;;9.20;4.63;;;13.20;99.90;;;;;;5053852;28;20027;-88
2021/09/03 05:53:06;;;;;;;7.07;3.80;;;13.30;99.90;;;;;;5053800;28;20033;-87
2021/09/03 05:55:32;;;;;;;6.55;3.78;;;13.10;99.90;;;;;;5054063;28;20053;-88
2021/09/03 05:57:58;;;;;;;7.63;4.45;;;13.20;99.90;;;;;;5053615;28;20056;-88
2021/09/03 06:00:24;;;;;;;14.05;4.25;;;13.20;99.90;;;;;;5054180;28;20029;-88
2021/09/03 06:02:50;;;;;;;5.75;4.07;;;13.10;99.90;;;;;;5053575;28;20056;-88
2021/09/03 06:05:16;;;;;;;5.20;3.85;;;13.40;99.90;;;;;;5054867;28;20021;-87
2021/09/03 06:07:42;;;;;;;10.32;4.30;;;13.50;99.90;;;;;;5053544;28;20017;-88
2021/09/03 06:10:09;;;;;;;6.50;4.63;;;13.80;99.90;;;;;;5053421;28;20021;-87
2021/09/03 06:12:36;;;;;;;6.10;4.45;;;13.90;99.90;;;;;;5053461;28;20033;-88
2021/09/03 06:15:03;;;;;;;5.70;4.10;;;14.10;99.90;;;;;;5053412;28;20036;-88
2021/09/03 06:17:30;;;;;;;6.95;4.40;;;14.10;99.90;;;;;;5053486;28;20032;-88
2021/09/03 06:19:55;;;;;;;6.22;4.03;;;14.10;99.90;;;;;;5053309;28;20052;-88
2021/09/03 06:22:21;;;;;;;5.53;4.10;;;14.10;99.90;;;;;;5053094;28;20029;-88
2021/09/03 06:24:47;;;;;;;6.90;4.32;;;14.10;99.90;;;;;;5052474;28;20028;-88
2021/09/03 06:27:12;;;;;;;13.43;4.40;;;13.90;99.90;;;;;;5016739;28;20022;-88
2021/09/03 06:29:42;;;;;;;7.65;4.30;;;13.90;99.90;;;;;;5016627;28;20037;-88
2021/09/03 06:32:20;;;;;;;10.43;4.22;;;13.90;99.90;;;;;;5016771;28;20057;-89
2021/09/03 06:34:47;;;;;;;9.32;4.45;;;13.80;99.90;;;;;;5034609;28;20029;-88
2021/09/03 06:37:14;;;;;;;8.82;3.92;;;13.80;99.90;;;;;;5016574;28;20057;-88
2021/09/03 06:39:42;;;;;;;8.77;4.82;;;13.80;99.90;;;;;;5016438;28;20030;-88
2021/09/03 06:42:08;;;;;;;9.23;4.50;;;13.90;99.90;;;;;;5016802;28;20029;-88
2021/09/03 06:44:35;;;;;;;6.80;4.32;;;14.10;99.90;;;;;;5017338;28;20025;-88
2021/09/03 06:47:00;;;;;;;8.52;4.25;;;14.50;99.90;;;;;;5016390;28;20057;-88
2021/09/03 06:49:26;;;;;;;10.65;4.50;;;14.40;99.90;;;;;;5016356;28;20029;-88
2021/09/03 06:51:53;;;;;;;9.38;4.53;;;14.30;99.90;;;;;;5016347;28;20025;-88
2021/09/03 06:54:19;;;;;;;9.55;5.00;;;14.50;99.90;;;;;;5016360;28;20110;-89
2021/09/03 06:56:45;;;;;;;12.07;5.05;;;14.60;99.90;;;;;;5015590;28;20025;-88
2021/09/03 06:59:10;;;;;;;10.00;4.90;;;14.70;99.90;;;;;;5017096;28;20029;-88
2021/09/03 07:01:36;;;;;;;6.70;4.40;;;14.70;99.90;;;;;;5016045;28;20052;-88
2021/09/03 07:04:02;;;;;;;8.68;4.90;;;14.80;99.90;;;;;;5033887;28;20075;-88
2021/09/03 07:06:28;;;;;;;6.00;4.07;;;14.90;99.90;;;;;;5016157;28;20030;-88
2021/09/03 07:08:54;;;;;;;9.60;5.30;;;14.90;99.90;;;;;;5016179;28;20022;-88
2021/09/03 07:11:20;;;;;;;6.53;4.70;;;15.20;99.90;;;;;;5016318;28;20017;-88
2021/09/03 07:13:45;;;;;;;12.35;5.75;;;15.40;99.90;;;;;;5034258;28;20021;-88
2021/09/03 07:16:11;;;;;;;10.20;5.07;;;15.60;99.90;;;;;;5036724;28;20021;-87
2021/09/03 07:18:37;;;;;;;10.40;5.00;;;15.50;99.90;;;;;;5036202;28;20040;-89
2021/09/03 07:21:03;;;;;;;13.43;5.95;;;15.60;99.90;;;;;;5017452;28;20036;-88
2021/09/03 07:23:29;;;;;;;9.82;5.30;;;15.80;99.90;;;;;;5015926;28;20370;-88
2021/09/03 07:25:54;;;;;;;8.95;5.80;;;15.80;99.90;;;;;;5032336;28;20124;-88
2021/09/03 07:28:20;;;;;;;8.95;5.95;;;16.00;99.90;;;;;;5053470;28;20025;-88
2021/09/03 07:30:46;;;;;;;10.57;6.85;;;16.00;99.90;;;;;;5052242;28;20064;-88
2021/09/03 07:33:11;;;;;;;15.95;6.75;;;16.00;99.90;;;;;;5052008;28;20459;-88
2021/09/03 07:35:38;;;;;;;11.43;6.40;;;16.00;99.90;;;;;;5052097;28;20029;-88
2021/09/03 07:38:04;;;;;;;15.95;7.15;;;16.10;99.90;;;;;;5051917;28;20029;-88
2021/09/03 07:40:32;;;;;;;13.77;6.53;;;16.20;99.90;;;;;;5053302;28;20404;-88
2021/09/03 07:43:05;;;;;;;13.98;6.72;;;16.50;99.90;;;;;;5051890;28;20112;-87
2021/09/03 07:45:31;;;;;;;11.02;6.70;;;16.50;99.90;;;;;;5052133;28;20112;-88
2021/09/03 07:47:57;;;;;;;12.52;6.43;;;16.60;99.90;;;;;;5052141;28;20033;-88
2021/09/03 07:50:23;;;;;;;10.88;6.38;;;16.90;99.90;;;;;;5051955;28;20358;-88
2021/09/03 07:52:49;;;;;;;10.20;6.40;;;17.00;99.90;;;;;;5051875;28;20021;-88
2021/09/03 07:55:14;;;;;;;13.18;7.05;;;17.00;99.90;;;;;;5051764;28;20036;-87
2021/09/03 07:57:40;;;;;;;13.90;7.15;;;17.00;99.90;;;;;;5051802;28;20025;-88
2021/09/03 08:00:06;;;;;;;9.65;5.50;;;17.10;99.90;;;;;;5051752;28;20028;-88
2021/09/03 08:02:33;;;;;;;9.60;6.10;;;17.30;99.90;;;;;;5052170;28;20048;-88
2021/09/03 08:04:58;;;;;;;11.50;5.45;;;17.50;99.90;;;;;;5051991;28;20025;-89
2021/09/03 08:07:27;;;;;;;14.13;6.90;;;17.50;99.90;;;;;;5053549;28;20039;-89
2021/09/03 08:09:54;;;;;;;12.32;6.65;;;17.50;99.90;;;;;;5054641;28;20378;-88
2021/09/03 08:12:20;;;;;;;10.60;7.57;;;17.80;99.90;;;;;;5055771;28;20025;-87
2021/09/03 08:14:46;;;;;;;9.65;6.72;;;17.80;99.90;;;;;;5055765;28;20542;-87
2021/09/03 08:17:11;;;;;;;8.10;5.18;;;17.90;99.90;;;;;;5055772;28;20053;-88
2021/09/03 08:19:37;;;;;;;12.20;6.63;;;17.80;99.90;;;;;;5055504;28;20520;-87
2021/09/03 08:22:03;;;;;;;9.25;6.22;;;17.90;99.90;;;;;;5055484;28;20025;-88
2021/09/03 08:24:29;;;;;;;8.40;5.85;;;18.20;99.90;;;;;;5055762;28;20113;-88
2021/09/03 08:26:55;;;;;;;12.60;6.57;;;18.30;99.90;;;;;;5055311;28;20068;-88
2021/09/03 08:29:21;;;;;;;7.63;5.70;;;18.40;99.90;;;;;;5055205;28;20029;-88
2021/09/03 08:31:47;;;;;;;8.48;5.25;;;18.50;99.90;;;;;;5055380;28;20055;-88
2021/09/03 08:34:13;;;;;;;9.75;5.50;;;18.70;99.90;;;;;;5055351;28;20017;-88
2021/09/03 08:36:38;;;;;;;10.40;5.85;;;18.80;99.90;;;;;;5055246;28;20044;-88
2021/09/03 08:39:04;;;;;;;10.25;6.57;;;18.90;99.90;;;;;;5055128;28;20021;-88
2021/09/03 08:41:30;;;;;;;11.20;5.90;;;19.10;99.90;;;;;;5055242;28;20021;-90
2021/09/03 08:43:59;;;;;;;11.75;6.32;;;19.30;99.90;;;;;;5055027;28;20021;-89
2021/09/03 08:46:25;;;;;;;9.30;6.32;;;19.30;99.90;;;;;;5055170;28;20025;-88
2021/09/03 08:48:51;;;;;;;10.23;5.88;;;19.40;99.90;;;;;;5055123;28;20025;-88
2021/09/03 08:51:17;;;;;;;9.85;5.70;;;19.30;99.90;;;;;;5054982;28;20495;-87
2021/09/03 08:53:42;;;;;;;8.02;6.22;;;19.30;99.90;;;;;;5055455;28;20059;-88
2021/09/03 08:56:08;;;;;;;11.15;5.22;;;19.50;99.90;;;;;;5054902;28;20432;-88
2021/09/03 08:58:35;;;;;;;8.40;5.82;;;19.80;99.90;;;;;;5054911;28;20025;-90
2021/09/03 09:01:06;;;;;;;10.82;6.55;;;20.10;99.90;;;;;;5055212;28;20021;-90
2021/09/03 09:03:37;;;;;;;10.73;5.55;;;20.10;99.90;;;;;;5054880;28;20032;-90
2021/09/03 09:06:03;;;;;;;7.25;5.40;;;20.10;99.90;;;;;;5055047;28;20029;-89
2021/09/03 09:08:31;;;;;;;11.35;6.22;;;20.20;99.90;;;;;;5055137;28;20025;-91
2021/09/03 09:10:58;;;;;;;9.55;6.50;;;20.40;99.90;;;;;;5056218;28;20056;-92
2021/09/03 09:13:40;;;;;;;18.42;7.95;;;20.50;99.90;;;;;;5056761;28;20032;-89
2021/09/03 09:16:08;;;;;;;8.98;5.70;;;20.50;99.90;;;;;;5054748;28;20025;-87
2021/09/03 09:18:38;;;;;;;11.73;6.38;;;20.60;99.90;;;;;;5054632;28;20488;-90
2021/09/03 09:21:16;;;;;;;9.55;6.22;;;20.70;99.90;;;;;;5055662;28;20469;-89
2021/09/03 09:23:47;;;;;;;9.82;6.05;;;20.80;99.90;;;;;;5054860;28;20020;-91
2021/09/03 09:26:15;;;;;;;8.52;6.30;;;21.00;99.90;;;;;;5055196;28;20132;-90
2021/09/03 09:28:43;;;;;;;12.45;6.55;;;21.10;99.90;;;;;;5066885;28;20063;-91
2021/09/03 09:31:09;;;;;;;23.27;6.72;;;21.00;99.90;;;;;;5062045;28;20017;-91
2021/09/03 09:33:35;;;;;;;7.88;5.85;;;21.10;99.90;;;;;;5065861;28;20389;-90
2021/09/03 09:36:03;;;;;;;10.07;6.05;;;21.20;99.90;;;;;;5056061;28;20029;-92
2021/09/03 09:38:34;;;;;;;11.55;6.32;;;21.30;99.90;;;;;;5055661;28;20028;-90
2021/09/03 09:41:09;;;;;;;11.40;6.28;;;21.40;99.90;;;;;;5054583;28;20021;-90
2021/09/03 09:43:38;;;;;;;7.70;6.20;;;21.40;99.90;;;;;;5055202;28;20060;-90
2021/09/03 09:46:28;;;;;;;10.70;5.70;;;21.40;99.90;;;;;;5054904;28;20020;-92
2021/09/03 09:49:00;;;;;;;7.80;5.75;;;21.50;99.90;;;;;;5055409;28;20084;-90
2021/09/03 09:51:41;;;;;;;7.95;5.82;;;21.50;99.90;;;;;;5054444;28;20079;-92
2021/09/03 09:54:22;;;;;;;7.75;5.80;;;21.70;99.90;;;;;;5055523;28;20021;-91
2021/09/03 09:57:01;;;;;;;7.80;5.70;;;21.90;99.90;;;;;;5054411;28;20029;-91
2021/09/03 09:59:29;;;;;;;9.52;5.80;;;22.00;99.90;;;;;;5055017;28;20037;-90
2021/09/03 10:02:00;;;;;;;8.80;5.90;;;22.30;99.90;;;;;;5055183;28;20111;-93
2021/09/03 10:04:28;;;;;;;7.57;5.45;;;22.50;99.90;;;;;;5054703;28;20021;-92
2021/09/03 10:06:59;;;;;;;8.10;5.05;;;22.50;99.90;;;;;;5055634;28;20104;-91
2021/09/03 10:09:28;;;;;;;9.90;5.70;;;22.70;99.90;;;;;;5054367;28;20534;-91
2021/09/03 10:11:55;;;;;;;10.50;5.88;;;22.90;99.90;;;;;;5054872;28;20021;-92
2021/09/03 10:14:32;;;;;;;12.52;5.57;;;22.80;99.90;;;;;;5054545;28;20031;-91
2021/09/03 10:16:59;;;;;;;8.77;5.45;;;22.20;99.90;;;;;;5055047;28;20021;-91
2021/09/03 10:19:33;;;;;;;9.70;6.32;;;22.70;99.90;;;;;;5055068;28;20029;-91
2021/09/03 10:22:06;;;;;;;8.43;4.90;;;23.00;99.90;;;;;;5053982;28;20028;-93
2021/09/03 10:24:34;;;;;;;8.48;6.05;;;23.20;99.90;;;;;;5054797;28;20039;-91
2021/09/03 10:27:00;;;;;;;9.05;5.47;;;23.20;99.90;;;;;;5053775;28;20059;-89
2021/09/03 10:29:27;;;;;;;8.55;5.47;;;23.50;99.90;;;;;;5054368;28;20112;-89
2021/09/03 10:32:05;;;;;;;7.68;4.88;;;23.70;99.90;;;;;;5052397;28;20032;-89
2021/09/03 10:34:57;;;;;;;13.02;5.78;;;23.90;99.90;;;;;;5053462;28;20025;-89
2021/09/03 10:37:26;;;;;;;6.50;4.47;;;23.70;99.90;;;;;;5042911;28;20033;-88
2021/09/03 10:39:52;;;;;;;6.93;5.53;;;23.90;99.90;;;;;;5053244;28;20082;-91
2021/09/03 10:45:02;;;;;;;10.85;5.70;;;24.20;99.90;;;;;;5054676;28;20029;-91
2021/09/03 10:47:47;;;;;;;7.75;5.93;;;24.50;99.90;;;;;;5053165;28;20420;-91
2021/09/03 10:50:18;;;;;;;8.80;6.18;;;24.70;99.90;;;;;;5053164;28;20024;-91
2021/09/03 10:53:02;;;;;;;7.25;5.75;;;24.90;99.90;;;;;;5054254;28;20052;-91
2021/09/03 10:56:05;;;;;;;10.48;5.78;;;25.10;99.90;;;;;;5053009;28;20028;-91
2021/09/03 10:58:37;;;;;;;10.95;6.32;;;25.10;99.90;;;;;;5052989;28;20393;-91
2021/09/03 11:01:15;;;;;;;9.07;6.05;;;25.10;99.90;;;;;;5052884;28;20087;-90
2021/09/03 11:04:04;;;;;;;6.65;5.18;;;25.60;99.90;;;;;;5052880;28;20052;-90
2021/09/03 11:06:36;;;;;;;6.80;5.53;;;25.90;99.90;;;;;;5053947;28;20025;-90
2021/09/03 11:09:02;;;;;;;7.75;5.20;;;26.10;99.90;;;;;;5052614;28;20024;-88
2021/09/03 11:11:34;;;;;;;8.55;5.20;;;26.40;99.90;;;;;;5052361;28;20079;-89
2021/09/03 11:14:08;;;;;;;9.20;4.97;;;26.70;99.90;;;;;;5052309;28;20027;-86
2021/09/03 11:16:39;;;;;;;8.07;5.47;;;27.20;99.90;;;;;;5053139;28;20449;-90
2021/09/03 11:19:11;;;;;;;10.93;6.07;;;27.00;99.90;;;;;;5052340;28;20091;-87
2021/09/03 11:21:42;;;;;;;8.13;4.65;;;27.40;99.90;;;;;;5052371;28;20052;-90
2021/09/03 11:24:10;;;;;;;8.60;5.20;;;27.50;99.90;;;;;;5052147;28;20029;-88
2021/09/03 11:26:38;;;;;;;8.18;5.03;;;27.10;99.90;;;;;;5053352;28;20127;-89
2021/09/03 11:29:06;;;;;;;5.95;4.60;;;27.10;99.90;;;;;;5052336;28;20075;-89
2021/09/03 11:31:34;;;;;;;6.95;4.68;;;27.70;99.90;;;;;;5052197;28;20020;-87
2021/09/03 11:34:05;;;;;;;5.80;4.53;;;;;;;;;;5053565;28;20412;-88
2021/09/03 11:36:50;;;;;;;6.18;4.60;;;27.90;99.90;;;;;;5052205;28;20031;-89
2021/09/03 11:39:16;;;;;;;;;;;27.80;99.90;;;;;;5053333;28;20488;-87
2021/09/03 11:41:51;;;;;;;7.32;4.07;;;28.40;99.90;;;;;;5057601;28;19904;-86
2021/09/03 11:44:17;;;;;;;7.00;4.47;;;28.60;98.60;;;;;;5066109;28;20029;-86
2021/09/03 11:46:43;;;;;;;11.98;4.45;;;;;;;;;;5057046;28;20079;-89
2021/09/03 11:49:10;;;;;;;5.57;4.53;;;29.00;98.30;;;;;;5053035;28;20033;-89
2021/09/03 11:51:35;;;;;;;7.07;5.13;;;29.50;98.10;;;;;;5052131;28;20028;-89
2021/09/03 11:54:02;;;;;;;7.00;5.10;;;29.30;97.10;;;;;;5051994;28;20025;-90
2021/09/03 11:56:28;;;;;;;6.55;4.38;;;28.90;97.30;;;;;;5052030;28;20123;-90
2021/09/03 11:58:54;;;;;;;7.78;4.45;;;29.20;97.00;;;;;;5052862;28;20408;-90
2021/09/03 12:01:23;;;;;;;8.77;5.53;;;28.50;97.30;;;;;;5051879;28;20120;-89
2021/09/03 12:03:50;;;;;;;6.60;4.15;;;28.70;97.30;;;;;;5051646;28;20029;-89
2021/09/03 12:06:18;;;;;;;5.28;3.55;;;29.00;96.00;;;;;;5051759;28;20028;-89
2021/09/03 12:08:45;;;;;;;5.78;4.20;;;29.80;95.00;;;;;;5051640;28;20552;-89
2021/09/03 12:11:19;;;;;;;9.18;3.92;;;29.70;94.90;;;;;;5052887;28;20049;-89
2021/09/03 12:13:56;;;;;;;6.70;3.85;;;29.70;94.30;;;;;;5051736;28;20507;-89
2021/09/03 12:16:29;;;;;;;6.95;4.07;;;30.00;94.00;;;;;;5051745;28;20143;-89
2021/09/03 12:18:57;;;;;;;4.55;3.80;;;30.30;93.60;;;;;;5051647;28;20494;-89
2021/09/03 12:21:26;;;;;;;5.18;3.85;;;30.50;92.60;;;;;;5052896;28;20021;-89
2021/09/03 12:24:01;;;;;;;5.10;4.00;;;30.30;90.90;;;;;;5051503;28;20395;-89
2021/09/03 12:26:40;;;;;;;4.03;3.63;;;30.40;91.20;;;;;;5051770;28;20045;-90
2021/09/03 12:29:11;;;;;;;5.50;3.97;;;30.50;91.90;;;;;;5052524;28;20103;-89
2021/09/03 12:31:37;;;;;;;5.30;4.32;;;31.00;91.90;;;;;;5051809;28;20380;-89
2021/09/03 12:34:08;;;;;;;8.38;4.30;;;30.70;91.80;;;;;;5052017;28;20388;-89
2021/09/03 12:36:38;;;;;;;5.47;4.18;;;31.20;92.10;;;;;;5052717;28;20027;-89
2021/09/03 12:39:06;;;;;;;6.78;3.75;;;31.10;91.30;;;;;;5051560;28;20017;-89
2021/09/03 12:41:37;;;;;;;4.55;3.92;;;31.10;91.00;;;;;;5051465;28;20021;-90
2021/09/03 12:44:22;;;;;;;4.93;3.85;;;31.70;90.60;;;;;;5051403;28;20033;-90
2021/09/03 12:47:07;;;;;;;5.88;3.78;;;31.50;89.60;;;;;;5051472;28;20053;-89
2021/09/03 12:49:37;;;;;;;5.50;3.90;;;31.40;88.80;;;;;;5051440;28;20079;-89
2021/09/03 12:52:11;;;;;;;8.02;3.75;;;31.20;87.10;;;;;;5051381;28;20400;-90